Time;durP1;ratioP1;P1;durP2;ratioP2;P2;SDS_P1;SDS_P2;PMS_P1;PMS_P2;Temp;Humidity;BMP_temperature;BMP_pressure;BME280_temperature;BME280_humidity;BME280_pressure;Samples;Min_cycle;Max_cycle;Signal;HPM_P1;HPM_P2
2023/01/02 00:00:52;;;;;;;3.73;2.93;;;13.90;99.90;;;;;;6121677;23;20388;-58
2023/01/02 00:03:21;;;;;;;9.77;4.10;;;13.90;99.90;;;;;;6121178;23;20428;-59
2023/01/02 00:05:50;;;;;;;7.20;3.70;;;13.90;99.90;;;;;;6121145;23;20376;-58
2023/01/02 00:08:23;;;;;;;7.57;3.70;;;13.90;99.90;;;;;;6121195;23;20404;-59
2023/01/02 00:10:50;;;;;;;9.50;3.60;;;13.90;99.90;;;;;;6121087;23;20396;-58
2023/01/02 00:13:18;;;;;;;7.50;6.80;;;13.90;99.90;;;;;;6120769;23;20443;-59
2023/01/02 00:15:45;;;;;;;12.00;4.83;;;13.90;99.90;;;;;;6121164;23;20442;-58
2023/01/02 00:18:12;;;;;;;7.90;4.50;;;13.90;99.90;;;;;;6121247;23;20412;-56
2023/01/02 00:20:41;;;;;;;11.77;5.83;;;13.90;99.90;;;;;;6120386;23;20434;-57
2023/01/02 00:23:09;;;;;;;9.07;3.93;;;13.90;99.90;;;;;;6120886;23;20392;-58
2023/01/02 00:25:39;;;;;;;8.80;4.53;;;13.90;99.90;;;;;;6121061;23;20399;-58
2023/01/02 00:28:08;;;;;;;6.67;3.77;;;14.50;99.90;;;;;;6120600;23;20415;-57
2023/01/02 00:30:37;;;;;;;7.57;3.93;;;13.80;99.90;;;;;;6122822;23;20407;-58
2023/01/02 00:33:04;;;;;;;5.83;3.33;;;13.80;99.90;;;;;;6122878;23;20478;-58
2023/01/02 00:35:31;;;;;;;6.90;3.43;;;13.80;99.90;;;;;;6122908;23;20403;-60
2023/01/02 00:38:00;;;;;;;12.50;4.20;;;13.70;99.90;;;;;;6122534;23;20427;-61
2023/01/02 00:40:30;;;;;;;7.93;3.67;;;13.70;99.90;;;;;;6123089;23;20414;-58
2023/01/02 00:42:57;;;;;;;5.80;3.33;;;13.70;99.90;;;;;;6122796;23;20432;-57
2023/01/02 00:45:23;;;;;;;8.93;3.50;;;13.70;99.90;;;;;;6123155;23;20399;-59
2023/01/02 00:47:52;;;;;;;5.43;2.93;;;13.60;99.90;;;;;;6123196;23;20416;-60
2023/01/02 00:50:19;;;;;;;4.40;3.20;;;13.60;99.90;;;;;;6122904;23;20388;-60
2023/01/02 00:52:46;;;;;;;3.73;3.20;;;13.60;99.90;;;;;;6123332;23;20411;-58
2023/01/02 00:55:12;;;;;;;4.70;3.47;;;13.50;99.90;;;;;;6122899;23;20428;-59
2023/01/02 00:57:39;;;;;;;5.33;3.10;;;13.50;99.90;;;;;;6122193;23;20410;-60
2023/01/02 01:00:07;;;;;;;10.93;3.87;;;13.50;99.90;;;;;;6121841;23;20439;-57
2023/01/02 01:02:34;;;;;;;4.43;2.80;;;13.50;99.90;;;;;;6122071;23;20411;-60
2023/01/02 01:05:03;;;;;;;5.83;3.07;;;13.50;99.90;;;;;;6121761;23;20424;-58
2023/01/02 01:07:32;;;;;;;7.03;4.53;;;13.60;99.90;;;;;;6122031;23;20403;-55
2023/01/02 01:09:59;;;;;;;10.60;3.67;;;13.60;99.90;;;;;;6122386;23;20407;-59
2023/01/02 01:12:26;;;;;;;5.20;2.60;;;13.60;99.90;;;;;;6122632;23;20400;-59
2023/01/02 01:14:53;;;;;;;4.40;2.77;;;13.60;99.90;;;;;;6122243;23;20454;-57
2023/01/02 01:17:20;;;;;;;7.37;4.00;;;13.60;99.90;;;;;;6122088;23;20446;-56
2023/01/02 01:19:47;;;;;;;5.83;3.47;;;13.60;99.90;;;;;;6122679;23;20400;-59
2023/01/02 01:22:15;;;;;;;4.80;3.50;;;13.60;99.90;;;;;;6123094;23;20431;-60
2023/01/02 01:24:42;;;;;;;6.63;3.17;;;13.60;99.90;;;;;;6112483;23;20404;-60
2023/01/02 01:27:09;;;;;;;7.20;3.10;;;13.50;99.90;;;;;;6121270;23;20404;-58
2023/01/02 01:29:36;;;;;;;5.00;3.17;;;13.50;99.90;;;;;;6122194;23;20396;-59
2023/01/02 01:32:03;;;;;;;11.07;4.20;;;13.60;99.90;;;;;;6122158;23;20423;-57
2023/01/02 01:34:30;;;;;;;5.90;3.80;;;13.60;99.90;;;;;;6121644;23;20442;-58
2023/01/02 01:36:56;;;;;;;5.30;3.60;;;13.60;99.90;;;;;;6111023;23;20404;-57
2023/01/02 01:39:25;;;;;;;10.80;4.20;;;13.60;99.90;;;;;;6120624;23;20427;-60
2023/01/02 01:41:52;;;;;;;10.43;3.87;;;13.60;99.90;;;;;;6122553;23;20422;-61
2023/01/02 01:44:42;;;;;;;8.53;3.77;;;13.60;99.90;;;;;;6122445;23;20436;-59
2023/01/02 01:47:22;;;;;;;6.03;3.37;;;13.60;99.90;;;;;;6097849;23;20390;-66
2023/01/02 01:49:57;;;;;;;6.03;3.83;;;13.50;99.90;;;;;;6122427;23;20392;-59
2023/01/02 01:52:28;;;;;;;5.80;2.77;;;13.50;99.90;;;;;;6121989;23;20399;-57
2023/01/02 01:54:59;;;;;;;11.13;4.30;;;13.50;99.90;;;;;;6121625;23;20424;-57
2023/01/02 01:57:30;;;;;;;5.97;3.37;;;13.40;99.90;;;;;;6122588;23;20379;-57
2023/01/02 02:00:02;;;;;;;8.63;3.30;;;13.40;99.90;;;;;;6122097;23;20426;-58
2023/01/02 02:02:32;;;;;;;4.60;2.93;;;13.40;99.90;;;;;;6122512;23;20380;-58
2023/01/02 02:05:01;;;;;;;5.90;3.60;;;13.40;99.90;;;;;;6121813;23;20407;-57
2023/01/02 02:07:30;;;;;;;5.53;3.53;;;13.30;99.90;;;;;;6122172;23;20470;-59
2023/01/02 02:10:02;;;;;;;6.60;2.80;;;13.40;99.90;;;;;;6122245;23;20435;-57
2023/01/02 02:12:33;;;;;;;6.53;3.10;;;13.40;99.90;;;;;;6122016;23;20431;-57
2023/01/02 02:15:03;;;;;;;5.93;3.10;;;13.50;99.90;;;;;;6122035;23;20424;-56
2023/01/02 02:17:38;;;;;;;4.67;3.50;;;13.50;99.90;;;;;;6122072;23;20416;-56
2023/01/02 02:20:23;;;;;;;11.47;3.37;;;13.50;99.90;;;;;;6122308;23;20379;-58
2023/01/02 02:23:34;;;;;;;4.93;3.37;;;13.50;99.90;;;;;;6116755;23;20388;-58
2023/01/02 02:26:37;;;;;;;7.20;3.60;;;13.50;99.90;;;;;;6122871;23;20479;-66
2023/01/02 02:29:38;;;;;;;7.00;3.10;;;13.50;99.90;;;;;;6123859;23;20384;-62
2023/01/02 02:32:15;;;;;;;7.47;2.90;;;13.50;99.90;;;;;;6122579;23;20415;-60
2023/01/02 02:34:49;;;;;;;9.70;5.37;;;13.50;99.90;;;;;;6122388;23;20442;-60
2023/01/02 02:37:22;;;;;;;8.10;3.73;;;13.50;99.90;;;;;;6122089;23;20442;-60
2023/01/02 02:39:57;;;;;;;5.57;3.60;;;13.50;99.90;;;;;;6121950;23;20426;-56
2023/01/02 02:42:31;;;;;;;13.37;3.10;;;13.50;99.90;;;;;;6117136;23;20434;-57
2023/01/02 02:45:06;;;;;;;6.20;3.00;;;13.60;99.90;;;;;;6118837;23;20379;-57
2023/01/02 02:47:42;;;;;;;5.90;3.60;;;13.50;99.90;;;;;;6121657;23;20764;-58
2023/01/02 02:50:25;;;;;;;5.10;2.37;;;13.50;99.90;;;;;;6121959;23;20376;-56
2023/01/02 02:53:04;;;;;;;5.93;3.37;;;13.60;99.90;;;;;;6120916;23;20439;-59
2023/01/02 02:55:37;;;;;;;6.40;3.33;;;13.60;99.90;;;;;;6121172;23;20423;-58
2023/01/02 02:58:05;;;;;;;5.23;3.00;;;13.60;99.90;;;;;;6121196;23;20412;-58
2023/01/02 03:00:32;;;;;;;11.20;3.23;;;13.60;99.90;;;;;;6121475;23;20395;-59
2023/01/02 03:03:02;;;;;;;8.50;2.87;;;13.60;99.90;;;;;;6121542;23;20428;-59
2023/01/02 03:05:34;;;;;;;7.53;2.97;;;13.60;99.90;;;;;;6121845;23;20391;-60
2023/01/02 03:08:08;;;;;;;5.40;2.80;;;13.60;99.90;;;;;;6122235;23;20402;-59
2023/01/02 03:10:48;;;;;;;6.67;3.87;;;13.60;99.90;;;;;;6121558;23;20402;-57
2023/01/02 03:13:26;;;;;;;6.30;2.40;;;13.60;99.90;;;;;;6121236;23;20431;-60
2023/01/02 03:16:00;;;;;;;7.37;3.50;;;13.60;99.90;;;;;;6113411;23;20391;-57
2023/01/02 03:18:34;;;;;;;6.20;3.23;;;13.60;99.90;;;;;;6121826;23;20410;-56
2023/01/02 03:21:07;;;;;;;4.10;3.00;;;13.60;99.90;;;;;;6118480;23;20391;-60
2023/01/02 03:23:39;;;;;;;4.07;2.20;;;13.60;99.90;;;;;;6119798;23;20450;-58
2023/01/02 03:26:06;;;;;;;5.30;3.13;;;13.60;99.90;;;;;;6121864;23;20376;-60
2023/01/02 03:28:39;;;;;;;7.43;3.03;;;13.60;99.90;;;;;;6121343;23;20407;-58
2023/01/02 03:31:10;;;;;;;8.60;4.47;;;13.60;99.90;;;;;;6109739;23;20718;-58
2023/01/02 03:33:45;;;;;;;6.73;2.87;;;13.60;99.90;;;;;;6121229;23;20406;-59
2023/01/02 03:36:19;;;;;;;8.70;3.67;;;13.70;99.90;;;;;;6121447;23;20403;-58
2023/01/02 03:38:55;;;;;;;4.30;3.40;;;13.70;99.90;;;;;;6121540;23;20416;-58
2023/01/02 03:41:25;;;;;;;7.73;4.03;;;13.70;99.90;;;;;;6122298;23;20408;-57
2023/01/02 03:43:54;;;;;;;5.37;3.90;;;13.80;99.90;;;;;;6121314;23;20468;-57
2023/01/02 03:46:31;;;;;;;6.03;3.90;;;13.80;99.90;;;;;;6121824;23;20400;-59
2023/01/02 03:49:08;;;;;;;8.50;3.60;;;13.80;99.90;;;;;;6122828;23;20376;-63
2023/01/02 03:51:36;;;;;;;5.80;3.60;;;13.80;99.90;;;;;;6122882;23;20392;-61
2023/01/02 03:54:04;;;;;;;6.63;3.70;;;13.90;99.90;;;;;;6121275;23;20478;-58
2023/01/02 03:56:43;;;;;;;6.80;4.07;;;13.90;99.90;;;;;;6120931;23;20419;-58
2023/01/02 03:59:22;;;;;;;8.70;3.67;;;13.90;99.90;;;;;;6121374;23;20443;-58
2023/01/02 04:01:54;;;;;;;6.90;4.00;;;13.90;99.90;;;;;;6111099;23;20403;-57
2023/01/02 04:04:38;;;;;;;5.37;3.90;;;14.00;99.90;;;;;;6122928;23;20423;-59
2023/01/02 04:07:11;;;;;;;9.87;3.93;;;14.00;99.90;;;;;;6122521;23;20400;-59
2023/01/02 04:09:40;;;;;;;4.97;3.20;;;14.00;99.90;;;;;;6121518;23;20372;-57
2023/01/02 04:12:14;;;;;;;5.83;3.90;;;14.00;99.90;;;;;;6111629;23;20422;-56
2023/01/02 04:14:45;;;;;;;8.27;4.27;;;14.00;99.90;;;;;;6114373;23;20431;-60
2023/01/02 04:17:14;;;;;;;4.70;3.07;;;14.00;99.90;;;;;;6124668;23;20428;-61
2023/01/02 04:19:47;;;;;;;9.00;4.67;;;14.00;99.90;;;;;;6123930;23;20414;-58
2023/01/02 04:22:21;;;;;;;7.83;3.50;;;14.10;99.90;;;;;;6110670;23;20431;-55
2023/01/02 04:24:55;;;;;;;9.10;4.17;;;14.00;99.90;;;;;;6123351;23;20375;-58
2023/01/02 04:27:26;;;;;;;7.40;3.50;;;14.10;99.90;;;;;;6123510;23;20398;-55
2023/01/02 04:29:54;;;;;;;7.40;3.40;;;14.10;99.90;;;;;;6123042;23;20424;-57
2023/01/02 04:32:26;;;;;;;5.00;3.83;;;14.10;99.90;;;;;;6123440;23;20391;-57
2023/01/02 04:34:59;;;;;;;10.53;4.00;;;14.10;99.90;;;;;;6122982;23;20424;-59
2023/01/02 04:37:32;;;;;;;7.20;3.60;;;14.20;99.90;;;;;;6114062;23;20400;-66
2023/01/02 04:40:04;;;;;;;6.40;3.27;;;14.20;99.90;;;;;;6124074;23;20411;-56
2023/01/02 04:42:31;;;;;;;5.40;3.23;;;14.20;99.90;;;;;;6123458;23;20391;-59
2023/01/02 04:44:58;;;;;;;4.53;2.83;;;14.20;99.90;;;;;;6123429;23;20427;-58
2023/01/02 04:47:31;;;;;;;8.73;3.97;;;14.20;99.90;;;;;;6123581;23;20400;-58
2023/01/02 04:50:02;;;;;;;4.00;3.20;;;14.20;99.90;;;;;;6123842;23;20439;-60
2023/01/02 04:52:29;;;;;;;6.60;3.50;;;14.20;99.90;;;;;;6123687;23;20877;-62
2023/01/02 04:54:56;;;;;;;9.70;4.30;;;14.20;99.90;;;;;;6123711;23;20455;-62
2023/01/02 04:57:23;;;;;;;8.00;3.07;;;14.20;99.90;;;;;;6124991;23;20412;-58
2023/01/02 04:59:50;;;;;;;5.10;3.37;;;14.30;99.90;;;;;;6117607;23;20446;-56
2023/01/02 05:02:16;;;;;;;4.50;3.57;;;14.30;99.90;;;;;;6124851;23;20411;-66
2023/01/02 05:04:43;;;;;;;5.37;3.70;;;14.30;99.90;;;;;;6116971;23;20414;-62
2023/01/02 05:07:12;;;;;;;4.47;3.47;;;14.30;99.90;;;;;;6125121;23;20388;-59
2023/01/02 05:09:39;;;;;;;7.20;3.53;;;14.30;99.90;;;;;;6124989;23;20435;-61
2023/01/02 05:12:06;;;;;;;5.77;3.50;;;14.30;99.90;;;;;;6124857;23;20399;-62
2023/01/02 05:14:33;;;;;;;5.17;3.20;;;14.40;99.90;;;;;;6124219;23;20439;-65
2023/01/02 05:16:59;;;;;;;5.20;3.20;;;14.40;99.90;;;;;;6125617;23;20422;-62
2023/01/02 05:19:26;;;;;;;5.37;3.70;;;14.40;99.90;;;;;;6124410;23;20415;-61
2023/01/02 05:24:39;;;;;;;4.87;3.00;;;14.40;99.90;;;;;;6125158;23;20418;-60
2023/01/02 05:27:06;;;;;;;5.10;3.93;;;14.40;99.90;;;;;;6124931;23;20396;-56
2023/01/02 05:29:33;;;;;;;9.40;4.03;;;14.90;99.90;;;;;;6124565;23;20407;-62
2023/01/02 05:32:00;;;;;;;3.87;3.20;;;14.40;99.90;;;;;;6124646;23;20395;-58
2023/01/02 05:34:27;;;;;;;5.93;3.60;;;14.40;99.90;;;;;;6124566;23;20443;-57
2023/01/02 05:36:53;;;;;;;6.23;3.67;;;14.40;99.90;;;;;;6123523;23;20392;-61
2023/01/02 05:39:20;;;;;;;7.23;3.63;;;14.40;99.90;;;;;;6123127;23;20427;-53
2023/01/02 05:41:49;;;;;;;4.87;3.63;;;14.40;99.90;;;;;;6123166;23;20396;-63
2023/01/02 05:44:18;;;;;;;10.47;3.33;;;14.40;99.90;;;;;;6123582;23;20407;-66
2023/01/02 05:46:45;;;;;;;3.40;2.77;;;14.30;99.90;;;;;;6123816;23;20415;-54
2023/01/02 05:49:12;;;;;;;5.50;2.80;;;14.30;99.90;;;;;;6123680;23;20430;-57
2023/01/02 05:51:40;;;;;;;7.47;3.40;;;14.30;99.90;;;;;;6123524;23;20399;-58
2023/01/02 05:54:07;;;;;;;5.60;3.00;;;14.30;99.90;;;;;;6122688;23;20443;-59
2023/01/02 05:56:36;;;;;;;6.57;3.47;;;14.30;99.90;;;;;;6122718;23;20439;-57
2023/01/02 05:59:07;;;;;;;6.50;3.20;;;14.30;99.90;;;;;;6122846;23;20415;-55
2023/01/02 06:01:35;;;;;;;5.30;2.40;;;14.30;99.90;;;;;;6122615;23;20376;-56
2023/01/02 06:04:04;;;;;;;6.47;4.13;;;14.30;99.90;;;;;;6122713;23;20392;-56
2023/01/02 06:06:33;;;;;;;3.13;2.83;;;14.30;99.90;;;;;;6122857;23;20439;-62
2023/01/02 06:09:00;;;;;;;5.27;3.50;;;14.30;99.90;;;;;;6122272;23;20422;-56
2023/01/02 06:11:27;;;;;;;7.43;2.80;;;14.30;99.90;;;;;;6122322;23;20399;-55
2023/01/02 06:13:54;;;;;;;3.50;2.77;;;14.30;99.90;;;;;;6121330;23;20396;-58
2023/01/02 06:16:25;;;;;;;4.13;2.90;;;14.30;99.90;;;;;;6122838;23;20455;-56
2023/01/02 06:18:52;;;;;;;9.37;3.43;;;14.30;99.90;;;;;;6122763;23;20392;-59
2023/01/02 06:21:21;;;;;;;6.80;2.73;;;14.30;99.90;;;;;;6122422;23;20439;-57
2023/01/02 06:23:49;;;;;;;6.77;3.27;;;14.30;99.90;;;;;;6122481;23;20411;-59
2023/01/02 06:26:18;;;;;;;7.67;2.73;;;14.30;99.90;;;;;;6121824;23;20437;-55
2023/01/02 06:28:46;;;;;;;8.03;3.80;;;14.30;99.90;;;;;;6122137;23;20538;-59
2023/01/02 06:31:15;;;;;;;6.70;2.90;;;14.30;99.90;;;;;;6123410;23;20438;-55
2023/01/02 06:33:44;;;;;;;5.37;3.20;;;14.30;99.90;;;;;;6121933;23;20422;-58
2023/01/02 06:36:13;;;;;;;8.83;3.10;;;14.30;99.90;;;;;;6122102;23;20452;-58
2023/01/02 06:38:44;;;;;;;3.40;2.53;;;14.30;99.90;;;;;;6122213;23;20434;-57
2023/01/02 06:41:11;;;;;;;4.10;2.90;;;14.30;99.90;;;;;;6121709;23;20459;-59
2023/01/02 06:43:42;;;;;;;3.70;2.53;;;14.30;99.90;;;;;;6121906;23;20418;-55
2023/01/02 06:46:11;;;;;;;3.97;2.80;;;14.30;99.90;;;;;;6122341;23;20428;-64
2023/01/02 06:48:38;;;;;;;4.90;2.83;;;14.30;99.90;;;;;;6122409;23;20439;-57
2023/01/02 06:51:10;;;;;;;8.80;4.00;;;14.30;99.90;;;;;;6122176;23;20419;-58
2023/01/02 06:53:39;;;;;;;6.03;2.60;;;14.40;99.90;;;;;;6121142;23;20407;-58
2023/01/02 06:56:07;;;;;;;4.63;3.10;;;14.40;99.90;;;;;;6111957;23;20451;-58
2023/01/02 06:58:37;;;;;;;7.90;3.10;;;14.30;99.90;;;;;;6121882;23;20403;-58
2023/01/02 07:01:05;;;;;;;4.90;2.87;;;14.30;99.90;;;;;;6122191;23;20427;-57
2023/01/02 07:03:40;;;;;;;3.37;2.77;;;14.30;99.90;;;;;;6108053;23;20442;-60
2023/01/02 07:06:11;;;;;;;4.07;2.77;;;14.40;99.90;;;;;;6120001;23;20423;-59
2023/01/02 07:08:38;;;;;;;4.73;2.30;;;14.40;99.90;;;;;;6120542;23;20459;-58
2023/01/02 07:11:11;;;;;;;5.00;2.20;;;14.40;99.90;;;;;;6120792;23;20428;-58
2023/01/02 07:13:38;;;;;;;4.23;2.87;;;14.50;99.90;;;;;;6121031;23;20837;-59
2023/01/02 07:16:07;;;;;;;4.43;2.40;;;14.50;99.90;;;;;;6120784;23;20451;-59
2023/01/02 07:18:35;;;;;;;4.43;3.10;;;14.50;99.90;;;;;;6119828;23;20419;-56
2023/01/02 07:21:02;;;;;;;5.60;3.30;;;14.50;99.90;;;;;;6119802;23;20423;-59
2023/01/02 07:23:30;;;;;;;4.90;2.87;;;14.50;99.90;;;;;;6119859;23;20396;-58
2023/01/02 07:25:59;;;;;;;6.10;3.40;;;14.60;99.90;;;;;;6119513;23;20441;-59
2023/01/02 07:28:26;;;;;;;9.20;3.90;;;14.60;99.90;;;;;;6119883;23;20388;-61
2023/01/02 07:30:57;;;;;;;6.17;2.73;;;14.60;99.90;;;;;;6119859;23;20426;-56
2023/01/02 07:33:24;;;;;;;5.27;2.80;;;14.60;99.90;;;;;;6119756;23;20388;-59
2023/01/02 07:35:51;;;;;;;6.40;3.00;;;14.70;99.90;;;;;;6119818;23;20447;-58
2023/01/02 07:38:18;;;;;;;4.33;3.13;;;14.70;99.90;;;;;;6121586;23;20426;-58
2023/01/02 07:40:46;;;;;;;6.03;2.70;;;14.70;99.90;;;;;;6122508;23;20398;-58
2023/01/02 07:43:13;;;;;;;5.87;2.87;;;14.70;99.90;;;;;;6122512;23;20422;-58
2023/01/02 07:45:40;;;;;;;5.10;3.30;;;14.70;99.90;;;;;;6122445;23;20394;-59
2023/01/02 07:48:07;;;;;;;4.60;2.53;;;14.70;99.90;;;;;;6122805;23;20403;-57
2023/01/02 07:50:33;;;;;;;5.30;2.60;;;14.70;99.90;;;;;;6122904;23;20387;-58
2023/01/02 07:53:00;;;;;;;5.23;3.00;;;14.70;99.90;;;;;;6122771;23;20438;-56
2023/01/02 07:55:27;;;;;;;5.30;2.83;;;14.70;99.90;;;;;;6122125;23;20447;-57
2023/01/02 07:57:56;;;;;;;3.10;2.20;;;14.80;99.90;;;;;;6122823;23;20451;-58
2023/01/02 08:00:23;;;;;;;4.90;2.40;;;14.80;99.90;;;;;;6121854;23;20403;-59
2023/01/02 08:02:52;;;;;;;6.63;2.60;;;14.80;99.90;;;;;;6122159;23;20423;-57
2023/01/02 08:05:19;;;;;;;6.23;2.93;;;14.80;99.90;;;;;;6121980;23;20415;-56
2023/01/02 08:07:46;;;;;;;4.73;2.87;;;14.90;99.90;;;;;;6121982;23;20945;-58
2023/01/02 08:10:13;;;;;;;4.93;2.60;;;14.90;99.90;;;;;;6122310;23;20404;-56
2023/01/02 08:12:40;;;;;;;3.50;2.60;;;14.90;99.90;;;;;;6121928;23;20427;-57
2023/01/02 08:15:09;;;;;;;5.00;2.80;;;15.00;99.90;;;;;;6122421;23;20450;-58
2023/01/02 08:17:36;;;;;;;8.57;4.50;;;15.00;99.90;;;;;;6121732;23;20442;-56
2023/01/02 08:20:04;;;;;;;5.90;3.20;;;15.00;99.90;;;;;;6121853;23;20407;-55
2023/01/02 08:22:31;;;;;;;3.20;2.20;;;15.10;99.90;;;;;;6122364;23;20438;-59
2023/01/02 08:24:58;;;;;;;6.20;2.63;;;15.10;99.90;;;;;;6122831;23;20404;-57
2023/01/02 08:27:24;;;;;;;8.23;2.30;;;15.20;99.90;;;;;;6123730;23;20439;-57
2023/01/02 08:29:51;;;;;;;3.87;2.40;;;15.20;99.90;;;;;;6123506;23;20408;-60
2023/01/02 08:32:20;;;;;;;3.07;2.60;;;15.30;99.90;;;;;;6121015;23;20427;-57
2023/01/02 08:34:46;;;;;;;4.33;2.57;;;15.20;99.90;;;;;;6116458;23;20395;-59
2023/01/02 08:37:14;;;;;;;5.17;2.70;;;15.30;99.90;;;;;;6121914;23;20455;-55
2023/01/02 08:39:41;;;;;;;3.93;2.40;;;15.30;99.90;;;;;;6121788;23;20402;-58
2023/01/02 08:42:08;;;;;;;6.80;2.53;;;15.40;99.90;;;;;;6121509;23;20415;-57
2023/01/02 08:44:36;;;;;;;7.60;2.40;;;15.40;99.90;;;;;;6122478;23;20391;-59
2023/01/02 08:47:03;;;;;;;5.57;2.70;;;15.40;99.90;;;;;;6122072;23;20407;-58
2023/01/02 08:49:32;;;;;;;6.40;2.40;;;15.40;99.90;;;;;;6120667;23;20392;-60
2023/01/02 08:51:59;;;;;;;4.10;2.30;;;15.40;99.90;;;;;;6121974;23;20407;-58
2023/01/02 08:54:26;;;;;;;6.00;3.10;;;15.50;99.90;;;;;;6122022;23;20407;-55
2023/01/02 08:56:53;;;;;;;3.80;2.40;;;15.50;99.90;;;;;;6121434;23;20443;-57
2023/01/02 08:59:19;;;;;;;6.67;2.13;;;15.50;99.90;;;;;;6122070;23;20387;-60
2023/01/02 09:01:47;;;;;;;5.17;2.20;;;15.50;99.90;;;;;;6122538;23;20400;-58
2023/01/02 09:04:14;;;;;;;6.57;2.43;;;15.60;99.90;;;;;;6122013;23;20890;-58
2023/01/02 09:06:43;;;;;;;4.00;2.10;;;15.60;99.90;;;;;;6122099;23;20415;-56
2023/01/02 09:09:12;;;;;;;3.83;2.60;;;15.60;99.90;;;;;;6121743;23;20404;-57
2023/01/02 09:11:43;;;;;;;4.60;2.53;;;15.60;99.90;;;;;;6121121;23;20411;-57
2023/01/02 09:14:10;;;;;;;4.00;2.70;;;15.60;99.90;;;;;;6121511;23;20420;-57
2023/01/02 09:16:37;;;;;;;5.80;3.33;;;15.60;99.90;;;;;;6118263;23;20953;-58
2023/01/02 09:19:04;;;;;;;3.73;2.50;;;15.70;99.90;;;;;;6115922;23;20443;-57
2023/01/02 09:21:31;;;;;;;3.07;2.43;;;15.70;99.90;;;;;;6121316;23;20412;-57
2023/01/02 09:24:00;;;;;;;8.27;2.70;;;15.70;99.90;;;;;;6112495;23;20454;-56
2023/01/02 09:26:27;;;;;;;2.27;2.07;;;15.80;99.90;;;;;;6120843;23;20411;-56
2023/01/02 09:28:54;;;;;;;3.80;2.37;;;15.90;99.90;;;;;;6121882;23;20416;-54
2023/01/02 09:31:21;;;;;;;4.30;2.40;;;15.80;99.90;;;;;;6121286;23;20396;-60
2023/01/02 09:33:48;;;;;;;12.83;3.33;;;15.90;99.90;;;;;;6121249;23;20488;-57
2023/01/02 09:36:18;;;;;;;2.73;2.40;;;15.90;99.90;;;;;;6121661;23;20444;-54
2023/01/02 09:38:51;;;;;;;2.33;2.07;;;16.00;99.90;;;;;;6120850;23;20435;-59
2023/01/02 09:41:28;;;;;;;5.23;2.60;;;16.00;99.90;;;;;;6122352;23;20372;-56
2023/01/02 09:43:59;;;;;;;4.90;2.90;;;16.00;99.90;;;;;;6122337;23;20431;-59
2023/01/02 09:46:31;;;;;;;5.73;2.60;;;16.00;99.90;;;;;;6121258;23;20380;-57
2023/01/02 09:49:00;;;;;;;2.50;2.17;;;16.10;99.90;;;;;;6121289;23;20412;-59
2023/01/02 09:51:27;;;;;;;12.07;3.13;;;16.10;99.90;;;;;;6121422;23;20408;-59
2023/01/02 09:53:54;;;;;;;9.00;3.50;;;16.10;99.90;;;;;;6121452;23;20420;-58
2023/01/02 09:56:27;;;;;;;7.90;3.77;;;16.20;99.90;;;;;;6121702;23;20444;-56
2023/01/02 09:59:08;;;;;;;9.27;2.70;;;16.20;99.90;;;;;;6121589;23;20500;-59
2023/01/02 10:01:51;;;;;;;5.03;3.20;;;16.20;99.90;;;;;;6121190;23;20392;-58
2023/01/02 10:04:30;;;;;;;5.27;3.77;;;16.20;99.90;;;;;;6121309;23;20416;-57
2023/01/02 10:07:07;;;;;;;10.83;4.80;;;16.20;99.90;;;;;;6121484;23;20415;-58
2023/01/02 10:09:43;;;;;;;7.57;4.00;;;16.30;99.90;;;;;;6121525;23;20498;-57
2023/01/02 10:12:18;;;;;;;6.23;2.37;;;16.30;99.90;;;;;;6121066;23;20411;-58
2023/01/02 10:14:54;;;;;;;5.77;3.60;;;16.30;99.90;;;;;;6120983;23;20434;-58
2023/01/02 10:17:25;;;;;;;2.97;2.40;;;16.40;99.90;;;;;;6121263;23;20411;-58
2023/01/02 10:19:59;;;;;;;4.30;2.67;;;16.40;99.90;;;;;;6121145;23;20432;-56
2023/01/02 10:22:32;;;;;;;3.77;2.70;;;16.40;99.90;;;;;;6121523;23;20402;-56
2023/01/02 10:25:05;;;;;;;4.20;2.23;;;16.50;99.90;;;;;;6121981;23;20439;-58
2023/01/02 10:27:38;;;;;;;8.53;3.33;;;16.50;99.90;;;;;;6122607;23;20396;-57
2023/01/02 10:30:25;;;;;;;6.13;2.73;;;16.50;99.90;;;;;;6121642;23;20435;-59
2023/01/02 10:33:01;;;;;;;4.20;2.60;;;16.60;99.90;;;;;;6122620;23;20399;-54
2023/01/02 10:35:49;;;;;;;8.10;2.33;;;16.60;99.90;;;;;;6122437;23;20427;-58
2023/01/02 10:38:18;;;;;;;3.70;2.90;;;16.50;99.90;;;;;;6122282;23;20395;-60
2023/01/02 10:40:48;;;;;;;3.07;2.20;;;16.50;99.90;;;;;;6122625;23;20407;-59
2023/01/02 10:43:17;;;;;;;3.47;2.20;;;16.50;99.90;;;;;;6121728;23;20396;-59
2023/01/02 10:45:44;;;;;;;4.63;2.23;;;16.50;99.90;;;;;;6120625;23;20427;-59
2023/01/02 10:48:14;;;;;;;2.73;2.30;;;16.50;99.90;;;;;;6116445;23;20435;-58
2023/01/02 10:50:46;;;;;;;11.20;2.57;;;16.50;99.90;;;;;;6120879;23;20434;-55
2023/01/02 10:53:21;;;;;;;9.47;2.90;;;16.50;99.90;;;;;;6121861;23;20372;-59
2023/01/02 10:55:49;;;;;;;5.13;2.67;;;16.50;99.90;;;;;;6122016;23;20403;-57
2023/01/02 10:58:21;;;;;;;3.50;2.17;;;16.50;99.90;;;;;;6122579;23;20399;-59
2023/01/02 11:00:50;;;;;;;2.40;1.80;;;16.40;99.90;;;;;;6122602;23;20445;-59
2023/01/02 11:03:32;;;;;;;1.83;1.67;;;16.40;99.90;;;;;;6122323;23;20436;-59
2023/01/02 11:05:59;;;;;;;7.17;2.53;;;16.40;99.90;;;;;;6122299;23;20454;-57
2023/01/02 11:08:35;;;;;;;2.50;2.30;;;16.40;99.90;;;;;;6122075;23;20487;-58
2023/01/02 11:11:12;;;;;;;2.37;2.17;;;16.40;99.90;;;;;;6121080;23;20471;-57
2023/01/02 11:13:47;;;;;;;3.83;2.17;;;16.40;99.90;;;;;;6121738;23;20392;-58
2023/01/02 11:16:15;;;;;;;5.37;2.43;;;16.40;99.90;;;;;;6121848;23;20475;-58
2023/01/02 11:18:52;;;;;;;2.77;2.00;;;16.40;99.90;;;;;;6120961;23;20400;-56
2023/01/02 11:21:26;;;;;;;7.63;2.23;;;16.40;99.90;;;;;;6120164;23;20437;-57
2023/01/02 11:23:59;;;;;;;2.80;1.93;;;16.40;99.90;;;;;;6119971;23;20398;-59
2023/01/02 11:26:29;;;;;;;6.30;2.83;;;16.30;99.90;;;;;;6120253;23;20451;-57
2023/01/02 11:29:06;;;;;;;6.80;2.33;;;16.20;99.90;;;;;;6120385;23;20443;-59
2023/01/02 11:31:33;;;;;;;2.23;2.03;;;16.10;99.90;;;;;;6119890;23;20445;-57
2023/01/02 11:34:11;;;;;;;4.27;1.90;;;16.00;99.90;;;;;;6121193;23;20404;-57
2023/01/02 11:36:43;;;;;;;5.60;2.10;;;16.00;99.90;;;;;;6120905;23;20447;-58
2023/01/02 11:39:22;;;;;;;5.70;2.50;;;16.00;99.90;;;;;;6121089;23;20391;-58
2023/01/02 11:44:56;;;;;;;4.63;2.50;;;16.00;99.90;;;;;;6120687;23;20382;-59
2023/01/02 11:47:35;;;;;;;6.20;2.30;;;16.00;99.90;;;;;;6121024;23;20387;-58
2023/01/02 11:50:03;;;;;;;2.13;1.93;;;16.00;99.90;;;;;;6120141;23;20444;-58
2023/01/02 11:52:40;;;;;;;4.10;2.90;;;16.00;99.90;;;;;;6120373;23;20404;-59
2023/01/02 11:55:24;;;;;;;6.50;2.43;;;16.00;99.90;;;;;;6120237;23;20467;-58
2023/01/02 11:57:57;;;;;;;6.50;2.93;;;16.00;99.90;;;;;;6120905;23;20427;-57
2023/01/02 12:00:31;;;;;;;3.73;2.33;;;16.00;99.90;;;;;;6113559;23;20396;-57
2023/01/02 12:03:04;;;;;;;4.03;2.90;;;16.00;99.90;;;;;;6120371;23;20395;-59
2023/01/02 12:05:38;;;;;;;3.50;1.80;;;16.10;99.90;;;;;;6120588;23;20399;-58
2023/01/02 12:08:11;;;;;;;6.60;3.07;;;16.10;99.90;;;;;;6120994;23;20388;-58
2023/01/02 12:10:53;;;;;;;7.33;2.03;;;16.10;99.90;;;;;;6112004;23;20384;-59
2023/01/02 12:13:36;;;;;;;2.93;2.10;;;16.10;99.90;;;;;;6120680;23;20395;-59
2023/01/02 12:16:34;;;;;;;5.73;2.47;;;16.10;99.90;;;;;;6119637;23;20440;-58
2023/01/02 12:19:22;;;;;;;3.50;2.03;;;16.10;99.90;;;;;;6114592;23;20493;-60
2023/01/02 12:21:58;;;;;;;2.43;1.77;;;16.10;99.90;;;;;;6115304;23;20427;-58
2023/01/02 12:24:49;;;;;;;10.83;1.97;;;16.10;99.90;;;;;;6121761;23;20394;-58
2023/01/02 12:27:24;;;;;;;4.00;2.07;;;16.10;99.90;;;;;;6122055;23;20439;-58
2023/01/02 12:30:03;;;;;;;4.43;2.83;;;16.10;99.90;;;;;;6121801;23;20398;-59
2023/01/02 12:33:08;;;;;;;10.93;3.10;;;16.00;99.90;;;;;;6121890;23;20501;-59
2023/01/02 12:36:04;;;;;;;3.50;2.17;;;16.10;99.90;;;;;;6122344;23;20384;-55
2023/01/02 12:38:40;;;;;;;4.00;2.63;;;16.00;99.90;;;;;;6122293;23;20376;-60
2023/01/02 12:41:19;;;;;;;5.70;2.20;;;16.00;99.90;;;;;;6122400;23;20395;-58
2023/01/02 12:43:58;;;;;;;1.90;1.60;;;16.00;99.90;;;;;;6122189;23;20380;-58
2023/01/02 12:47:03;;;;;;;6.13;2.43;;;16.00;99.90;;;;;;6121767;23;20434;-58
2023/01/02 12:49:52;;;;;;;3.37;2.80;;;15.90;99.90;;;;;;6122109;23;20818;-58
2023/01/02 12:52:29;;;;;;;6.03;2.20;;;15.90;99.90;;;;;;6121537;23;20434;-59
2023/01/02 12:55:13;;;;;;;3.90;2.53;;;15.90;99.90;;;;;;6121182;23;20776;-57
2023/01/02 12:57:47;;;;;;;7.80;3.30;;;15.90;99.90;;;;;;6121565;23;20734;-54
2023/01/02 13:00:54;;;;;;;3.87;2.90;;;15.70;99.90;;;;;;6113027;23;20432;-56
2023/01/02 13:03:44;;;;;;;2.63;2.30;;;15.70;99.90;;;;;;6121621;23;20427;-56
2023/01/02 13:06:17;;;;;;;3.50;2.10;;;15.60;99.90;;;;;;6121884;23;20468;-59
2023/01/02 13:08:50;;;;;;;4.47;1.87;;;15.50;99.90;;;;;;6122171;23;20380;-55
2023/01/02 13:11:25;;;;;;;4.50;2.33;;;15.50;99.90;;;;;;6122451;23;20372;-55
2023/01/02 13:13:53;;;;;;;6.77;2.40;;;15.50;99.90;;;;;;6122674;23;20387;-56